Terminal Aerodrome Forecast
Issued by NWS

Home | Current Version | Previous Version | Text Only | Print | Product List | Glossary On
Versions: 1 2 3 4 5 6 7 8 9 10 11 12 13 14 15 16 17 18 19 20 21 22 23 24 25 26 27 28 29 30 31 32 33 34 35 36
000
FTUS41 KBOX 230536
TAFHYA
TAF
KHYA 230536Z 2306/2406 03007KT P6SM BKN025
     FM230800 04006KT P6SM BKN050
     FM231000 05007KT P6SM SCT110
     FM231800 14009KT P6SM BKN050
     FM232200 15009KT 3SM -RA BR OVC010
     FM240400 23010KT 3SM BR OVC003=

USA.gov is the U.S. government's official web portal to all federal, state and local government web resources and services.